sensor_id;sensor_type;location;lat;lon;timestamp;P1;durP1;ratioP1;P2;durP2;ratioP2
52067;SDS011;60237;52.338;21.228;2023-08-31T00:00:40;820.28;;;736.67;;
52067;SDS011;60237;52.338;21.228;2023-08-31T00:03:07;829.90;;;745.05;;
52067;SDS011;60237;52.338;21.228;2023-08-31T00:05:40;826.90;;;743.20;;
52067;SDS011;60237;52.338;21.228;2023-08-31T00:08:07;804.67;;;724.53;;
52067;SDS011;60237;52.338;21.228;2023-08-31T00:10:34;820.50;;;736.13;;
52067;SDS011;60237;52.338;21.228;2023-08-31T00:13:01;825.78;;;739.08;;
52067;SDS011;60237;52.338;21.228;2023-08-31T00:15:28;830.42;;;744.90;;
52067;SDS011;60237;52.338;21.228;2023-08-31T00:17:55;814.65;;;732.70;;
52067;SDS011;60237;52.338;21.228;2023-08-31T00:20:22;826.75;;;741.80;;
52067;SDS011;60237;52.338;21.228;2023-08-31T00:22:48;832.75;;;745.08;;
52067;SDS011;60237;52.338;21.228;2023-08-31T00:25:15;819.50;;;736.55;;
52067;SDS011;60237;52.338;21.228;2023-08-31T00:27:41;829.38;;;744.90;;
52067;SDS011;60237;52.338;21.228;2023-08-31T00:30:09;825.50;;;742.28;;
52067;SDS011;60237;52.338;21.228;2023-08-31T00:32:37;818.35;;;734.78;;
52067;SDS011;60237;52.338;21.228;2023-08-31T00:35:05;843.53;;;756.15;;
52067;SDS011;60237;52.338;21.228;2023-08-31T00:37:32;810.20;;;727.58;;
52067;SDS011;60237;52.338;21.228;2023-08-31T00:40:00;808.13;;;725.17;;
52067;SDS011;60237;52.338;21.228;2023-08-31T00:42:28;837.22;;;748.47;;
52067;SDS011;60237;52.338;21.228;2023-08-31T00:44:56;827.17;;;741.25;;
52067;SDS011;60237;52.338;21.228;2023-08-31T00:47:23;815.08;;;730.53;;
52067;SDS011;60237;52.338;21.228;2023-08-31T00:49:50;831.03;;;746.45;;
52067;SDS011;60237;52.338;21.228;2023-08-31T00:52:17;812.38;;;730.40;;
52067;SDS011;60237;52.338;21.228;2023-08-31T00:54:46;813.85;;;729.67;;
52067;SDS011;60237;52.338;21.228;2023-08-31T00:57:14;825.78;;;740.45;;
52067;SDS011;60237;52.338;21.228;2023-08-31T00:59:40;811.75;;;727.88;;
52067;SDS011;60237;52.338;21.228;2023-08-31T01:02:11;821.72;;;738.50;;
52067;SDS011;60237;52.338;21.228;2023-08-31T01:07:34;824.13;;;737.40;;
52067;SDS011;60237;52.338;21.228;2023-08-31T01:12:53;825.85;;;741.08;;
52067;SDS011;60237;52.338;21.228;2023-08-31T01:15:21;820.70;;;731.28;;
52067;SDS011;60237;52.338;21.228;2023-08-31T01:17:48;821.95;;;737.70;;
52067;SDS011;60237;52.338;21.228;2023-08-31T01:20:18;809.28;;;727.45;;
52067;SDS011;60237;52.338;21.228;2023-08-31T01:22:57;813.67;;;730.63;;
52067;SDS011;60237;52.338;21.228;2023-08-31T01:25:26;814.42;;;730.97;;
52067;SDS011;60237;52.338;21.228;2023-08-31T01:27:55;817.88;;;731.95;;
52067;SDS011;60237;52.338;21.228;2023-08-31T01:30:21;826.25;;;740.03;;
52067;SDS011;60237;52.338;21.228;2023-08-31T01:32:49;811.20;;;728.15;;
52067;SDS011;60237;52.338;21.228;2023-08-31T01:35:17;800.10;;;719.20;;
52067;SDS011;60237;52.338;21.228;2023-08-31T01:37:49;816.35;;;732.33;;
52067;SDS011;60237;52.338;21.228;2023-08-31T01:40:24;810.47;;;726.90;;
52067;SDS011;60237;52.338;21.228;2023-08-31T01:42:52;818.67;;;735.40;;
52067;SDS011;60237;52.338;21.228;2023-08-31T01:45:20;821.67;;;736.10;;
52067;SDS011;60237;52.338;21.228;2023-08-31T01:47:48;816.70;;;732.35;;
52067;SDS011;60237;52.338;21.228;2023-08-31T01:50:14;809.95;;;726.65;;
52067;SDS011;60237;52.338;21.228;2023-08-31T01:52:41;812.33;;;730.60;;
52067;SDS011;60237;52.338;21.228;2023-08-31T01:55:07;812.13;;;728.55;;
52067;SDS011;60237;52.338;21.228;2023-08-31T01:57:34;818.28;;;734.60;;
52067;SDS011;60237;52.338;21.228;2023-08-31T02:00:07;807.05;;;724.97;;
52067;SDS011;60237;52.338;21.228;2023-08-31T02:02:40;795.58;;;712.30;;
52067;SDS011;60237;52.338;21.228;2023-08-31T02:05:06;786.35;;;706.67;;
52067;SDS011;60237;52.338;21.228;2023-08-31T02:07:33;805.70;;;723.78;;
52067;SDS011;60237;52.338;21.228;2023-08-31T02:10:01;784.50;;;704.15;;
52067;SDS011;60237;52.338;21.228;2023-08-31T02:12:27;811.60;;;723.85;;
52067;SDS011;60237;52.338;21.228;2023-08-31T02:14:54;790.72;;;709.15;;
52067;SDS011;60237;52.338;21.228;2023-08-31T02:17:21;788.67;;;706.33;;
52067;SDS011;60237;52.338;21.228;2023-08-31T02:19:48;798.33;;;716.13;;
52067;SDS011;60237;52.338;21.228;2023-08-31T02:22:15;793.35;;;711.72;;
52067;SDS011;60237;52.338;21.228;2023-08-31T02:24:41;789.60;;;708.55;;
52067;SDS011;60237;52.338;21.228;2023-08-31T02:27:08;778.15;;;698.42;;
52067;SDS011;60237;52.338;21.228;2023-08-31T02:29:34;784.88;;;705.05;;
52067;SDS011;60237;52.338;21.228;2023-08-31T02:32:04;789.63;;;708.25;;
52067;SDS011;60237;52.338;21.228;2023-08-31T02:34:32;788.78;;;706.53;;
52067;SDS011;60237;52.338;21.228;2023-08-31T02:36:59;792.83;;;710.25;;
52067;SDS011;60237;52.338;21.228;2023-08-31T02:39:27;794.60;;;709.65;;
52067;SDS011;60237;52.338;21.228;2023-08-31T02:41:53;795.53;;;714.40;;
52067;SDS011;60237;52.338;21.228;2023-08-31T02:44:20;776.78;;;695.10;;
52067;SDS011;60237;52.338;21.228;2023-08-31T02:46:47;789.83;;;708.13;;
52067;SDS011;60237;52.338;21.228;2023-08-31T02:49:14;780.05;;;699.45;;
52067;SDS011;60237;52.338;21.228;2023-08-31T02:51:40;794.17;;;712.90;;
52067;SDS011;60237;52.338;21.228;2023-08-31T02:54:08;786.17;;;703.85;;
52067;SDS011;60237;52.338;21.228;2023-08-31T02:56:34;781.85;;;702.83;;
52067;SDS011;60237;52.338;21.228;2023-08-31T02:59:01;789.67;;;708.30;;
52067;SDS011;60237;52.338;21.228;2023-08-31T03:01:27;783.60;;;700.72;;
52067;SDS011;60237;52.338;21.228;2023-08-31T03:03:54;792.53;;;706.50;;
52067;SDS011;60237;52.338;21.228;2023-08-31T03:06:21;792.20;;;707.72;;
52067;SDS011;60237;52.338;21.228;2023-08-31T03:11:48;789.95;;;703.20;;
52067;SDS011;60237;52.338;21.228;2023-08-31T03:14:15;783.10;;;701.33;;
52067;SDS011;60237;52.338;21.228;2023-08-31T03:16:41;773.55;;;694.67;;
52067;SDS011;60237;52.338;21.228;2023-08-31T03:19:09;788.47;;;703.67;;
52067;SDS011;60237;52.338;21.228;2023-08-31T03:21:35;798.08;;;708.88;;
52067;SDS011;60237;52.338;21.228;2023-08-31T03:24:02;773.65;;;691.35;;
52067;SDS011;60237;52.338;21.228;2023-08-31T03:26:29;794.13;;;711.97;;
52067;SDS011;60237;52.338;21.228;2023-08-31T03:28:56;774.85;;;692.38;;
52067;SDS011;60237;52.338;21.228;2023-08-31T03:31:24;785.40;;;695.90;;
52067;SDS011;60237;52.338;21.228;2023-08-31T03:33:51;826.63;;;705.75;;
52067;SDS011;60237;52.338;21.228;2023-08-31T03:36:17;785.22;;;705.50;;
52067;SDS011;60237;52.338;21.228;2023-08-31T03:38:44;787.10;;;705.67;;
52067;SDS011;60237;52.338;21.228;2023-08-31T03:41:11;801.30;;;712.00;;
52067;SDS011;60237;52.338;21.228;2023-08-31T03:43:38;779.42;;;698.65;;
52067;SDS011;60237;52.338;21.228;2023-08-31T03:46:05;789.28;;;707.80;;
52067;SDS011;60237;52.338;21.228;2023-08-31T03:48:32;854.30;;;717.22;;
52067;SDS011;60237;52.338;21.228;2023-08-31T03:50:58;785.60;;;702.90;;
52067;SDS011;60237;52.338;21.228;2023-08-31T03:53:25;767.70;;;687.58;;
52067;SDS011;60237;52.338;21.228;2023-08-31T03:55:56;774.53;;;689.70;;
52067;SDS011;60237;52.338;21.228;2023-08-31T03:58:23;786.63;;;703.47;;
52067;SDS011;60237;52.338;21.228;2023-08-31T04:00:51;776.78;;;692.97;;
52067;SDS011;60237;52.338;21.228;2023-08-31T04:03:18;780.97;;;695.55;;
52067;SDS011;60237;52.338;21.228;2023-08-31T04:05:46;769.38;;;683.75;;
52067;SDS011;60237;52.338;21.228;2023-08-31T04:08:13;775.70;;;695.00;;
52067;SDS011;60237;52.338;21.228;2023-08-31T04:10:40;791.92;;;702.03;;
52067;SDS011;60237;52.338;21.228;2023-08-31T04:13:06;783.90;;;692.55;;
52067;SDS011;60237;52.338;21.228;2023-08-31T04:15:33;813.75;;;700.97;;
52067;SDS011;60237;52.338;21.228;2023-08-31T04:18:01;767.00;;;686.65;;
52067;SDS011;60237;52.338;21.228;2023-08-31T04:20:28;786.17;;;701.90;;
52067;SDS011;60237;52.338;21.228;2023-08-31T04:22:54;770.05;;;688.90;;
52067;SDS011;60237;52.338;21.228;2023-08-31T04:25:21;761.65;;;680.33;;
52067;SDS011;60237;52.338;21.228;2023-08-31T04:27:48;773.83;;;690.42;;
52067;SDS011;60237;52.338;21.228;2023-08-31T04:30:15;771.90;;;693.28;;
52067;SDS011;60237;52.338;21.228;2023-08-31T04:32:43;774.08;;;689.25;;
52067;SDS011;60237;52.338;21.228;2023-08-31T04:35:11;777.72;;;693.17;;
52067;SDS011;60237;52.338;21.228;2023-08-31T04:37:37;774.83;;;693.90;;
52067;SDS011;60237;52.338;21.228;2023-08-31T04:40:04;779.40;;;698.13;;
52067;SDS011;60237;52.338;21.228;2023-08-31T04:42:31;853.97;;;710.63;;
52067;SDS011;60237;52.338;21.228;2023-08-31T04:44:57;772.05;;;691.20;;
52067;SDS011;60237;52.338;21.228;2023-08-31T04:47:24;781.40;;;697.42;;
52067;SDS011;60237;52.338;21.228;2023-08-31T04:49:51;773.63;;;689.85;;
52067;SDS011;60237;52.338;21.228;2023-08-31T04:52:18;775.88;;;694.50;;
52067;SDS011;60237;52.338;21.228;2023-08-31T04:54:44;806.65;;;703.45;;
52067;SDS011;60237;52.338;21.228;2023-08-31T04:57:11;807.75;;;699.85;;
52067;SDS011;60237;52.338;21.228;2023-08-31T04:59:38;763.75;;;685.20;;
52067;SDS011;60237;52.338;21.228;2023-08-31T05:02:05;762.92;;;681.88;;
52067;SDS011;60237;52.338;21.228;2023-08-31T05:04:31;801.13;;;714.00;;
52067;SDS011;60237;52.338;21.228;2023-08-31T05:06:58;782.17;;;700.20;;
52067;SDS011;60237;52.338;21.228;2023-08-31T05:09:25;813.22;;;713.20;;
52067;SDS011;60237;52.338;21.228;2023-08-31T05:11:51;781.22;;;695.95;;
52067;SDS011;60237;52.338;21.228;2023-08-31T05:14:18;793.50;;;710.70;;
52067;SDS011;60237;52.338;21.228;2023-08-31T05:16:45;774.85;;;692.70;;
52067;SDS011;60237;52.338;21.228;2023-08-31T05:19:12;798.22;;;701.35;;
52067;SDS011;60237;52.338;21.228;2023-08-31T05:21:38;771.60;;;683.90;;
52067;SDS011;60237;52.338;21.228;2023-08-31T05:24:08;771.28;;;690.65;;
52067;SDS011;60237;52.338;21.228;2023-08-31T05:26:35;798.17;;;711.53;;
52067;SDS011;60237;52.338;21.228;2023-08-31T05:29:01;778.78;;;698.70;;
52067;SDS011;60237;52.338;21.228;2023-08-31T05:34:41;788.55;;;699.13;;
52067;SDS011;60237;52.338;21.228;2023-08-31T05:37:35;783.45;;;701.85;;
52067;SDS011;60237;52.338;21.228;2023-08-31T05:40:05;806.22;;;715.13;;
52067;SDS011;60237;52.338;21.228;2023-08-31T05:42:37;902.35;;;725.33;;
52067;SDS011;60237;52.338;21.228;2023-08-31T05:45:07;808.10;;;720.72;;
52067;SDS011;60237;52.338;21.228;2023-08-31T05:47:39;808.55;;;726.45;;
52067;SDS011;60237;52.338;21.228;2023-08-31T05:50:06;806.53;;;726.63;;
52067;SDS011;60237;52.338;21.228;2023-08-31T05:52:33;828.53;;;741.53;;
52067;SDS011;60237;52.338;21.228;2023-08-31T05:55:03;849.63;;;759.80;;
52067;SDS011;60237;52.338;21.228;2023-08-31T05:57:38;890.88;;;774.85;;
52067;SDS011;60237;52.338;21.228;2023-08-31T06:00:27;901.58;;;772.42;;
52067;SDS011;60237;52.338;21.228;2023-08-31T06:06:58;859.63;;;768.30;;
52067;SDS011;60237;52.338;21.228;2023-08-31T06:10:18;816.28;;;735.63;;
52067;SDS011;60237;52.338;21.228;2023-08-31T06:21:55;844.42;;;748.22;;
52067;SDS011;60237;52.338;21.228;2023-08-31T06:24:31;1038.88;;;777.58;;
52067;SDS011;60237;52.338;21.228;2023-08-31T06:27:33;1039.35;;;771.88;;
52067;SDS011;60237;52.338;21.228;2023-08-31T06:34:06;809.50;;;723.72;;
52067;SDS011;60237;52.338;21.228;2023-08-31T06:37:21;815.58;;;722.85;;
52067;SDS011;60237;52.338;21.228;2023-08-31T06:40:36;792.28;;;710.15;;
52067;SDS011;60237;52.338;21.228;2023-08-31T06:43:47;804.38;;;718.05;;
52067;SDS011;60237;52.338;21.228;2023-08-31T06:46:27;802.80;;;715.60;;
52067;SDS011;60237;52.338;21.228;2023-08-31T06:49:36;818.13;;;728.95;;
52067;SDS011;60237;52.338;21.228;2023-08-31T06:53:11;794.25;;;712.25;;
52067;SDS011;60237;52.338;21.228;2023-08-31T06:56:01;822.22;;;718.45;;
52067;SDS011;60237;52.338;21.228;2023-08-31T06:58:33;794.28;;;710.40;;
52067;SDS011;60237;52.338;21.228;2023-08-31T07:01:06;823.90;;;732.03;;
52067;SDS011;60237;52.338;21.228;2023-08-31T07:03:46;794.08;;;711.72;;
52067;SDS011;60237;52.338;21.228;2023-08-31T07:06:29;812.35;;;720.40;;
52067;SDS011;60237;52.338;21.228;2023-08-31T07:09:05;816.35;;;736.10;;
52067;SDS011;60237;52.338;21.228;2023-08-31T07:11:55;843.53;;;754.80;;
52067;SDS011;60237;52.338;21.228;2023-08-31T07:14:47;872.70;;;783.97;;
52067;SDS011;60237;52.338;21.228;2023-08-31T07:18:17;911.25;;;817.13;;
52067;SDS011;60237;52.338;21.228;2023-08-31T07:21:14;931.40;;;841.05;;
52067;SDS011;60237;52.338;21.228;2023-08-31T07:24:19;941.20;;;853.28;;
52067;SDS011;60237;52.338;21.228;2023-08-31T07:27:19;954.90;;;863.58;;
52067;SDS011;60237;52.338;21.228;2023-08-31T07:30:31;969.60;;;880.42;;
52067;SDS011;60237;52.338;21.228;2023-08-31T07:33:12;971.92;;;879.15;;
52067;SDS011;60237;52.338;21.228;2023-08-31T07:36:25;965.47;;;878.45;;
52067;SDS011;60237;52.338;21.228;2023-08-31T07:39:23;962.85;;;871.13;;
52067;SDS011;60237;52.338;21.228;2023-08-31T07:49:18;992.58;;;894.55;;
52067;SDS011;60237;52.338;21.228;2023-08-31T07:52:40;984.28;;;887.05;;
52067;SDS011;60237;52.338;21.228;2023-08-31T07:55:15;970.50;;;876.72;;
52067;SDS011;60237;52.338;21.228;2023-08-31T07:58:07;970.58;;;878.80;;
52067;SDS011;60237;52.338;21.228;2023-08-31T08:00:45;1148.63;;;916.55;;
52067;SDS011;60237;52.338;21.228;2023-08-31T08:06:16;950.22;;;864.70;;
52067;SDS011;60237;52.338;21.228;2023-08-31T08:12:10;963.63;;;866.63;;
52067;SDS011;60237;52.338;21.228;2023-08-31T08:20:48;959.15;;;870.60;;
52067;SDS011;60237;52.338;21.228;2023-08-31T08:23:40;945.33;;;856.25;;
52067;SDS011;60237;52.338;21.228;2023-08-31T08:26:28;952.35;;;864.30;;
52067;SDS011;60237;52.338;21.228;2023-08-31T08:29:23;941.97;;;853.40;;
52067;SDS011;60237;52.338;21.228;2023-08-31T08:32:00;948.25;;;859.10;;
52067;SDS011;60237;52.338;21.228;2023-08-31T08:34:55;954.00;;;859.20;;
52067;SDS011;60237;52.338;21.228;2023-08-31T08:40:57;968.70;;;877.20;;
52067;SDS011;60237;52.338;21.228;2023-08-31T08:44:03;960.05;;;872.60;;
52067;SDS011;60237;52.338;21.228;2023-08-31T08:46:36;986.53;;;891.65;;
52067;SDS011;60237;52.338;21.228;2023-08-31T08:49:13;994.40;;;900.42;;
52067;SDS011;60237;52.338;21.228;2023-08-31T08:52:03;999.00;;;901.25;;
52067;SDS011;60237;52.338;21.228;2023-08-31T08:54:51;998.90;;;902.83;;
52067;SDS011;60237;52.338;21.228;2023-08-31T08:57:23;983.30;;;893.05;;
52067;SDS011;60237;52.338;21.228;2023-08-31T09:00:33;1024.10;;;912.50;;
52067;SDS011;60237;52.338;21.228;2023-08-31T09:06:32;992.78;;;901.78;;
52067;SDS011;60237;52.338;21.228;2023-08-31T09:09:21;998.17;;;905.53;;
52067;SDS011;60237;52.338;21.228;2023-08-31T09:11:53;993.92;;;901.05;;
52067;SDS011;60237;52.338;21.228;2023-08-31T09:21:54;1040.35;;;936.55;;
52067;SDS011;60237;52.338;21.228;2023-08-31T09:24:31;1026.05;;;926.53;;
52067;SDS011;60237;52.338;21.228;2023-08-31T09:33:52;1030.45;;;926.90;;
52067;SDS011;60237;52.338;21.228;2023-08-31T09:37:50;1014.17;;;918.72;;
52067;SDS011;60237;52.338;21.228;2023-08-31T09:59:47;980.40;;;887.88;;
52067;SDS011;60237;52.338;21.228;2023-08-31T10:10:46;1008.38;;;913.38;;
52067;SDS011;60237;52.338;21.228;2023-08-31T10:20:49;1018.53;;;926.05;;
52067;SDS011;60237;52.338;21.228;2023-08-31T10:23:46;1018.40;;;923.38;;
52067;SDS011;60237;52.338;21.228;2023-08-31T10:29:55;1006.45;;;917.15;;
52067;SDS011;60237;52.338;21.228;2023-08-31T10:40:16;1029.57;;;937.45;;
52067;SDS011;60237;52.338;21.228;2023-08-31T10:43:29;1019.30;;;928.38;;
52067;SDS011;60237;52.338;21.228;2023-08-31T10:50:49;1009.05;;;919.00;;
52067;SDS011;60237;52.338;21.228;2023-08-31T10:53:33;1019.72;;;923.35;;
52067;SDS011;60237;52.338;21.228;2023-08-31T11:00:01;1009.10;;;912.97;;
52067;SDS011;60237;52.338;21.228;2023-08-31T11:06:03;1002.83;;;909.38;;
52067;SDS011;60237;52.338;21.228;2023-08-31T11:08:48;996.92;;;905.63;;
52067;SDS011;60237;52.338;21.228;2023-08-31T11:11:26;1001.10;;;908.92;;
52067;SDS011;60237;52.338;21.228;2023-08-31T11:13:57;1001.97;;;907.47;;
52067;SDS011;60237;52.338;21.228;2023-08-31T11:16:37;1009.33;;;912.30;;
52067;SDS011;60237;52.338;21.228;2023-08-31T11:19:50;1010.22;;;913.78;;
52067;SDS011;60237;52.338;21.228;2023-08-31T11:23:23;1001.97;;;908.65;;
52067;SDS011;60237;52.338;21.228;2023-08-31T11:26:17;999.78;;;908.70;;
52067;SDS011;60237;52.338;21.228;2023-08-31T11:29:10;993.00;;;903.58;;
52067;SDS011;60237;52.338;21.228;2023-08-31T11:31:55;1009.00;;;916.53;;
52067;SDS011;60237;52.338;21.228;2023-08-31T11:34:39;1022.20;;;920.88;;
52067;SDS011;60237;52.338;21.228;2023-08-31T11:37:17;1020.88;;;920.60;;
52067;SDS011;60237;52.338;21.228;2023-08-31T11:40:01;1033.40;;;931.47;;
52067;SDS011;60237;52.338;21.228;2023-08-31T11:43:23;1037.65;;;938.92;;
52067;SDS011;60237;52.338;21.228;2023-08-31T11:56:13;1038.03;;;940.33;;
52067;SDS011;60237;52.338;21.228;2023-08-31T11:58:55;1030.32;;;937.22;;
52067;SDS011;60237;52.338;21.228;2023-08-31T12:01:47;1024.20;;;931.63;;
52067;SDS011;60237;52.338;21.228;2023-08-31T12:05:09;1018.03;;;926.05;;
52067;SDS011;60237;52.338;21.228;2023-08-31T12:07:44;1024.38;;;931.90;;
52067;SDS011;60237;52.338;21.228;2023-08-31T12:10:27;1030.65;;;936.45;;
52067;SDS011;60237;52.338;21.228;2023-08-31T12:13:08;1030.30;;;932.28;;
52067;SDS011;60237;52.338;21.228;2023-08-31T12:15:47;1082.20;;;965.00;;
52067;SDS011;60237;52.338;21.228;2023-08-31T12:18:49;1061.32;;;950.75;;
52067;SDS011;60237;52.338;21.228;2023-08-31T12:21:26;1021.83;;;927.58;;
52067;SDS011;60237;52.338;21.228;2023-08-31T12:24:05;1018.92;;;927.45;;
52067;SDS011;60237;52.338;21.228;2023-08-31T12:29:40;998.63;;;910.92;;
52067;SDS011;60237;52.338;21.228;2023-08-31T12:32:14;1000.90;;;912.08;;
52067;SDS011;60237;52.338;21.228;2023-08-31T12:34:56;1016.47;;;924.50;;
52067;SDS011;60237;52.338;21.228;2023-08-31T12:40:38;1020.15;;;922.80;;
52067;SDS011;60237;52.338;21.228;2023-08-31T12:43:56;1026.47;;;928.75;;
52067;SDS011;60237;52.338;21.228;2023-08-31T12:46:44;1026.78;;;931.97;;
52067;SDS011;60237;52.338;21.228;2023-08-31T12:49:31;1011.28;;;919.80;;
52067;SDS011;60237;52.338;21.228;2023-08-31T12:52:12;1027.15;;;932.63;;
52067;SDS011;60237;52.338;21.228;2023-08-31T12:54:49;1035.05;;;935.70;;
52067;SDS011;60237;52.338;21.228;2023-08-31T13:00:43;1047.88;;;934.25;;
52067;SDS011;60237;52.338;21.228;2023-08-31T13:03:20;1008.25;;;917.70;;
52067;SDS011;60237;52.338;21.228;2023-08-31T13:06:09;1012.88;;;921.42;;
52067;SDS011;60237;52.338;21.228;2023-08-31T13:12:17;1012.55;;;921.22;;
52067;SDS011;60237;52.338;21.228;2023-08-31T13:15:18;1021.90;;;926.17;;
52067;SDS011;60237;52.338;21.228;2023-08-31T13:18:30;1006.20;;;917.80;;
52067;SDS011;60237;52.338;21.228;2023-08-31T13:21:10;1024.53;;;926.92;;
52067;SDS011;60237;52.338;21.228;2023-08-31T13:23:57;1017.40;;;921.83;;
52067;SDS011;60237;52.338;21.228;2023-08-31T13:26:52;1017.70;;;927.17;;
52067;SDS011;60237;52.338;21.228;2023-08-31T13:29:31;1021.15;;;928.70;;
52067;SDS011;60237;52.338;21.228;2023-08-31T13:36:00;1011.45;;;919.63;;
52067;SDS011;60237;52.338;21.228;2023-08-31T13:39:12;1022.08;;;923.58;;
52067;SDS011;60237;52.338;21.228;2023-08-31T13:42:03;1021.90;;;928.90;;
52067;SDS011;60237;52.338;21.228;2023-08-31T13:45:15;1027.07;;;932.92;;
52067;SDS011;60237;52.338;21.228;2023-08-31T13:47:49;1030.10;;;936.63;;
52067;SDS011;60237;52.338;21.228;2023-08-31T13:54:04;1023.38;;;929.83;;
52067;SDS011;60237;52.338;21.228;2023-08-31T13:56:58;1016.95;;;925.55;;
52067;SDS011;60237;52.338;21.228;2023-08-31T13:59:49;1026.72;;;930.05;;
52067;SDS011;60237;52.338;21.228;2023-08-31T14:02:27;1013.65;;;921.80;;
52067;SDS011;60237;52.338;21.228;2023-08-31T14:05:16;1032.43;;;936.05;;
52067;SDS011;60237;52.338;21.228;2023-08-31T14:07:52;1024.47;;;929.20;;
52067;SDS011;60237;52.338;21.228;2023-08-31T14:10:48;1028.47;;;932.38;;
52067;SDS011;60237;52.338;21.228;2023-08-31T14:13:28;1022.22;;;926.88;;
52067;SDS011;60237;52.338;21.228;2023-08-31T14:16:23;1026.57;;;927.80;;
52067;SDS011;60237;52.338;21.228;2023-08-31T14:19:40;1016.85;;;923.60;;
52067;SDS011;60237;52.338;21.228;2023-08-31T14:22:24;1010.00;;;916.55;;
52067;SDS011;60237;52.338;21.228;2023-08-31T14:25:09;993.92;;;901.55;;
52067;SDS011;60237;52.338;21.228;2023-08-31T14:27:48;1019.08;;;913.55;;
52067;SDS011;60237;52.338;21.228;2023-08-31T14:31:03;961.90;;;871.10;;
52067;SDS011;60237;52.338;21.228;2023-08-31T14:33:52;1055.63;;;876.65;;
52067;SDS011;60237;52.338;21.228;2023-08-31T14:36:40;1038.35;;;846.55;;
52067;SDS011;60237;52.338;21.228;2023-08-31T14:39:30;879.83;;;794.95;;
52067;SDS011;60237;52.338;21.228;2023-08-31T14:47:23;819.70;;;736.47;;
52067;SDS011;60237;52.338;21.228;2023-08-31T15:01:40;796.22;;;713.67;;
52067;SDS011;60237;52.338;21.228;2023-08-31T15:51:41;1044.90;;;746.83;;
52067;SDS011;60237;52.338;21.228;2023-08-31T17:31:22;798.45;;;712.58;;
52067;SDS011;60237;52.338;21.228;2023-08-31T17:33:51;805.33;;;718.63;;
52067;SDS011;60237;52.338;21.228;2023-08-31T17:36:19;786.97;;;706.58;;
52067;SDS011;60237;52.338;21.228;2023-08-31T17:38:46;782.85;;;702.03;;
52067;SDS011;60237;52.338;21.228;2023-08-31T17:41:13;795.15;;;713.97;;
52067;SDS011;60237;52.338;21.228;2023-08-31T17:43:41;773.30;;;692.50;;
52067;SDS011;60237;52.338;21.228;2023-08-31T17:46:15;774.47;;;693.05;;
52067;SDS011;60237;52.338;21.228;2023-08-31T17:48:42;781.35;;;698.25;;
52067;SDS011;60237;52.338;21.228;2023-08-31T17:51:11;763.67;;;683.70;;
52067;SDS011;60237;52.338;21.228;2023-08-31T17:53:38;765.63;;;686.40;;
52067;SDS011;60237;52.338;21.228;2023-08-31T17:56:05;763.28;;;683.78;;
52067;SDS011;60237;52.338;21.228;2023-08-31T17:58:32;763.78;;;683.70;;
52067;SDS011;60237;52.338;21.228;2023-08-31T18:00:58;766.45;;;686.55;;
52067;SDS011;60237;52.338;21.228;2023-08-31T18:03:26;767.67;;;686.88;;
52067;SDS011;60237;52.338;21.228;2023-08-31T18:05:52;759.00;;;678.38;;
52067;SDS011;60237;52.338;21.228;2023-08-31T18:08:20;741.20;;;661.67;;
52067;SDS011;60237;52.338;21.228;2023-08-31T18:10:54;744.25;;;664.03;;
52067;SDS011;60237;52.338;21.228;2023-08-31T18:13:20;741.75;;;661.78;;
52067;SDS011;60237;52.338;21.228;2023-08-31T18:15:49;752.47;;;665.00;;
52067;SDS011;60237;52.338;21.228;2023-08-31T18:18:15;731.63;;;653.30;;
52067;SDS011;60237;52.338;21.228;2023-08-31T18:20:43;726.70;;;647.97;;
52067;SDS011;60237;52.338;21.228;2023-08-31T18:23:10;716.70;;;638.42;;
52067;SDS011;60237;52.338;21.228;2023-08-31T18:25:36;729.75;;;650.72;;
52067;SDS011;60237;52.338;21.228;2023-08-31T18:28:03;738.42;;;650.85;;
52067;SDS011;60237;52.338;21.228;2023-08-31T18:30:30;742.28;;;662.40;;
52067;SDS011;60237;52.338;21.228;2023-08-31T18:32:57;738.30;;;658.85;;
52067;SDS011;60237;52.338;21.228;2023-08-31T18:35:25;747.28;;;650.25;;
52067;SDS011;60237;52.338;21.228;2023-08-31T18:37:52;738.25;;;637.58;;
52067;SDS011;60237;52.338;21.228;2023-08-31T18:40:18;734.63;;;642.58;;
52067;SDS011;60237;52.338;21.228;2023-08-31T18:42:46;752.33;;;634.30;;
52067;SDS011;60237;52.338;21.228;2023-08-31T18:45:13;706.50;;;628.85;;
52067;SDS011;60237;52.338;21.228;2023-08-31T18:47:44;713.88;;;631.15;;
52067;SDS011;60237;52.338;21.228;2023-08-31T18:50:12;721.33;;;642.17;;
52067;SDS011;60237;52.338;21.228;2023-08-31T18:52:47;711.45;;;624.92;;
52067;SDS011;60237;52.338;21.228;2023-08-31T18:55:13;709.80;;;627.45;;
52067;SDS011;60237;52.338;21.228;2023-08-31T18:57:43;752.17;;;632.55;;
52067;SDS011;60237;52.338;21.228;2023-08-31T19:00:11;691.55;;;613.72;;
52067;SDS011;60237;52.338;21.228;2023-08-31T19:02:39;759.13;;;628.67;;
52067;SDS011;60237;52.338;21.228;2023-08-31T19:05:07;708.20;;;623.33;;
52067;SDS011;60237;52.338;21.228;2023-08-31T19:07:34;700.15;;;621.00;;
52067;SDS011;60237;52.338;21.228;2023-08-31T19:10:00;723.30;;;617.28;;
52067;SDS011;60237;52.338;21.228;2023-08-31T19:12:33;707.25;;;613.13;;
52067;SDS011;60237;52.338;21.228;2023-08-31T19:15:01;738.63;;;626.20;;
52067;SDS011;60237;52.338;21.228;2023-08-31T19:17:27;722.05;;;610.72;;
52067;SDS011;60237;52.338;21.228;2023-08-31T19:19:54;719.03;;;618.80;;
52067;SDS011;60237;52.338;21.228;2023-08-31T19:22:21;717.20;;;607.15;;
52067;SDS011;60237;52.338;21.228;2023-08-31T19:24:50;796.83;;;624.05;;
52067;SDS011;60237;52.338;21.228;2023-08-31T19:27:17;725.38;;;605.65;;
52067;SDS011;60237;52.338;21.228;2023-08-31T19:29:44;717.25;;;599.45;;
52067;SDS011;60237;52.338;21.228;2023-08-31T19:34:44;717.40;;;584.83;;
52067;SDS011;60237;52.338;21.228;2023-08-31T19:37:11;709.75;;;586.53;;
52067;SDS011;60237;52.338;21.228;2023-08-31T19:39:38;720.17;;;591.65;;
52067;SDS011;60237;52.338;21.228;2023-08-31T19:42:05;694.10;;;592.40;;
52067;SDS011;60237;52.338;21.228;2023-08-31T19:44:31;697.83;;;599.38;;
52067;SDS011;60237;52.338;21.228;2023-08-31T19:46:58;737.97;;;593.38;;
52067;SDS011;60237;52.338;21.228;2023-08-31T19:49:40;711.80;;;581.15;;
52067;SDS011;60237;52.338;21.228;2023-08-31T19:52:06;705.03;;;595.10;;
52067;SDS011;60237;52.338;21.228;2023-08-31T19:54:33;706.55;;;581.83;;